createdAt,value
2018-09-19T00:00:17.215Z,50.5
2018-09-19T00:05:19.614Z,50.8
2018-09-19T00:10:22.206Z,50.9
2018-09-19T00:15:24.534Z,51
2018-09-19T00:20:26.933Z,51.2
2018-09-19T00:25:29.419Z,51.2
2018-09-19T00:30:31.814Z,51.3
2018-09-19T00:35:34.271Z,51.3
2018-09-19T00:40:36.851Z,51.4
2018-09-19T00:45:39.141Z,51.7
2018-09-19T00:50:41.603Z,52
2018-09-19T00:55:44.066Z,52
2018-09-19T01:00:46.489Z,52.2
2018-09-19T01:05:48.912Z,52.2
2018-09-19T01:10:51.331Z,52.4
2018-09-19T01:15:53.869Z,52.3
2018-09-19T01:20:56.278Z,52.5
2018-09-19T01:25:58.667Z,52.7
2018-09-19T01:31:01.097Z,52.9
2018-09-19T01:36:03.569Z,52.9
2018-09-19T01:41:06.034Z,53.2
2018-09-19T01:46:08.433Z,53.1
2018-09-19T01:51:10.925Z,53.2
2018-09-19T01:56:13.294Z,53.4
2018-09-19T02:01:15.751Z,53.6
2018-09-19T02:06:18.201Z,53.8
2018-09-19T02:11:20.629Z,53.9
2018-09-19T02:16:23.114Z,54.1
2018-09-19T02:21:25.525Z,54.1
2018-09-19T02:26:27.969Z,54.3
2018-09-19T02:31:30.397Z,54.3
2018-09-19T02:36:32.840Z,54.4
2018-09-19T02:41:35.259Z,54.4
2018-09-19T02:46:37.727Z,55.1
2018-09-19T02:51:40.152Z,55.2
2018-09-19T02:56:42.627Z,55.1
2018-09-19T03:01:45.028Z,55.2
2018-09-19T03:06:47.534Z,55.1
2018-09-19T03:11:49.935Z,55.1
2018-09-19T03:16:52.548Z,55.1
2018-09-19T03:21:54.795Z,55.3
2018-09-19T03:26:57.267Z,55.4
2018-09-19T03:31:59.699Z,55.2
2018-09-19T03:37:02.125Z,55.6
2018-09-19T03:42:04.616Z,56.2
2018-09-19T03:47:06.997Z,56.2
2018-09-19T03:52:09.461Z,56.2
2018-09-19T03:57:11.896Z,56.2
2018-09-19T04:02:14.349Z,56
2018-09-19T04:07:21.816Z,56.1
2018-09-19T04:12:19.437Z,55.8
2018-09-19T04:17:21.661Z,55.9
2018-09-19T04:22:24.090Z,56.2
2018-09-19T04:27:31.683Z,56.3
2018-09-19T04:32:29.155Z,56.5
2018-09-19T04:37:31.553Z,56.5
2018-09-19T04:42:33.859Z,56.6
2018-09-19T04:47:36.317Z,56.6
2018-09-19T04:52:38.716Z,56.7
2018-09-19T04:57:41.202Z,56.8
2018-09-19T05:02:43.598Z,56.8
2018-09-19T05:07:46.142Z,56.9
2018-09-19T05:12:48.484Z,57
2018-09-19T05:17:51.134Z,57
2018-09-19T05:22:53.389Z,57
2018-09-19T05:27:55.874Z,57.1
2018-09-19T05:32:58.243Z,57
2018-09-19T05:38:00.678Z,56.9
2018-09-19T05:43:03.168Z,56.9
2018-09-19T05:48:05.579Z,56.9
2018-09-19T05:53:08.026Z,57
2018-09-19T05:58:10.530Z,57.1
2018-09-19T06:03:12.900Z,57.1
2018-09-19T06:08:15.332Z,57.1
2018-09-19T06:13:17.789Z,57.4
2018-09-19T06:18:20.262Z,57.6
2018-09-19T06:23:22.656Z,57.7
2018-09-19T06:28:25.103Z,57.9
2018-09-19T06:33:27.559Z,57.8
2018-09-19T06:38:30.043Z,58
2018-09-19T06:43:32.664Z,58
2018-09-19T06:48:34.878Z,58
2018-09-19T06:53:37.592Z,58.1
2018-09-19T06:58:39.993Z,58.2
2018-09-19T07:03:42.178Z,58.1
2018-09-19T07:08:44.608Z,58
2018-09-19T07:13:47.147Z,58
2018-09-19T07:18:49.597Z,58
2018-09-19T07:23:52.079Z,58
2018-09-19T07:28:54.474Z,58.1
2018-09-19T07:33:56.813Z,58.1
2018-09-19T07:38:59.262Z,58.1
2018-09-19T07:44:01.789Z,58
2018-09-19T07:49:04.231Z,57.9
2018-09-19T07:54:06.701Z,57.5
2018-09-19T07:59:09.059Z,57.1
2018-09-19T08:04:11.479Z,55
2018-09-19T08:09:14.000Z,54.4
2018-09-19T08:14:16.468Z,54.4
2018-09-19T08:19:18.785Z,54.3
2018-09-19T08:24:21.336Z,54.1
2018-09-19T08:29:23.684Z,52.8
2018-09-19T08:34:26.184Z,52.5
2018-09-19T08:39:28.687Z,52.8
2018-09-19T08:44:31.082Z,52.3
2018-09-19T08:49:33.562Z,52.1
2018-09-19T08:54:35.889Z,52.2
2018-09-19T08:59:38.518Z,51.8
2018-09-19T09:04:40.747Z,51.5
2018-09-19T09:09:43.196Z,51.9
2018-09-19T09:14:45.724Z,51.9
2018-09-19T09:19:48.404Z,52
2018-09-19T09:24:50.524Z,52.2
2018-09-19T09:29:52.967Z,51.5
2018-09-19T09:34:55.401Z,51.1
2018-09-19T09:39:57.842Z,50.2
2018-09-19T09:45:00.318Z,50.1
2018-09-19T09:50:02.764Z,49.6
2018-09-19T09:55:05.243Z,48.8
2018-09-19T10:00:07.748Z,47.9
2018-09-19T10:05:10.072Z,47.9
2018-09-19T10:10:12.539Z,47.5
2018-09-19T10:15:14.989Z,48.1
2018-09-19T10:20:17.392Z,48.1
2018-09-19T10:25:20.245Z,47.8
2018-09-19T10:30:22.476Z,46.7
2018-09-19T10:35:24.767Z,46.6
2018-09-19T10:40:27.159Z,45.6
2018-09-19T10:45:29.614Z,46
2018-09-19T10:50:32.233Z,44.1
2018-09-19T10:55:34.491Z,43.8
2018-09-19T11:00:36.962Z,43.9
2018-09-19T11:05:39.375Z,41.6
2018-09-19T11:10:41.860Z,41.2
2018-09-19T11:15:44.263Z,40.9
2018-09-19T11:20:46.675Z,40.2
2018-09-19T11:25:49.128Z,38.5
2018-09-19T11:30:51.557Z,38.7
2018-09-19T11:35:54.056Z,40.3
2018-09-19T11:40:56.707Z,38.4
2018-09-19T11:45:58.982Z,38.9
2018-09-19T11:51:01.329Z,38.6
2018-09-19T11:56:03.812Z,36.8
2018-09-19T12:01:06.270Z,35.7
2018-09-19T12:06:08.691Z,35
2018-09-19T12:11:11.225Z,32.2
2018-09-19T12:16:13.646Z,30.6
2018-09-19T12:21:16.043Z,29.7
2018-09-19T12:26:18.577Z,29.2
2018-09-19T12:31:21.066Z,29.5
2018-09-19T12:36:23.371Z,28.9
2018-09-19T12:41:25.750Z,29.1
2018-09-19T12:46:28.248Z,27.1
2018-09-19T12:51:30.667Z,27.1
2018-09-19T12:56:33.070Z,26.4
2018-09-19T13:01:35.536Z,26.3
2018-09-19T13:06:37.984Z,26
2018-09-19T13:11:40.789Z,25.7
2018-09-19T13:16:42.879Z,25.3
2018-09-19T13:21:45.329Z,25.1
2018-09-19T13:26:47.776Z,25
2018-09-19T13:31:50.176Z,25.2
2018-09-19T13:36:52.615Z,23.6
2018-09-19T13:41:55.095Z,24.7
2018-09-19T13:46:57.510Z,25.1
2018-09-19T13:52:00.044Z,24.8
2018-09-19T13:57:02.433Z,25.5
2018-09-19T14:02:04.846Z,24.3
2018-09-19T14:07:07.365Z,23.8
2018-09-19T14:12:09.748Z,23.5
2018-09-19T14:17:12.182Z,23.5
2018-09-19T14:22:14.600Z,23.7
2018-09-19T14:27:17.091Z,22.6
2018-09-19T14:32:19.509Z,23
2018-09-19T14:37:21.936Z,22.2
2018-09-19T14:42:24.398Z,22.3
2018-09-19T14:47:26.832Z,22.4
2018-09-19T14:52:29.353Z,22.9
2018-09-19T14:57:32.052Z,22.8
2018-09-19T15:02:34.193Z,23.2
2018-09-19T15:07:36.661Z,22.9
2018-09-19T15:12:39.069Z,22.2
2018-09-19T15:17:41.497Z,22
2018-09-19T15:22:43.931Z,21.9
2018-09-19T15:27:46.369Z,22
2018-09-19T15:32:48.823Z,22
2018-09-19T15:37:51.344Z,22.1
2018-09-19T15:42:53.767Z,22.4
2018-09-19T15:47:56.161Z,22.7
2018-09-19T15:52:58.696Z,23.9
2018-09-19T15:58:01.055Z,24.6
2018-09-19T16:03:03.500Z,25.2
2018-09-19T16:08:06.038Z,25.5
2018-09-19T16:13:08.541Z,25.4
2018-09-19T16:18:10.816Z,26.2
2018-09-19T16:23:13.501Z,27.2
2018-09-19T16:28:15.789Z,28.2
2018-09-19T16:33:18.160Z,29
2018-09-19T16:38:20.563Z,29.7
2018-09-19T16:43:23.881Z,30.4
2018-09-19T16:48:25.465Z,31.2
2018-09-19T16:53:27.918Z,32.1
2018-09-19T16:58:30.450Z,32.9
2018-09-19T17:03:32.894Z,33.7
2018-09-19T17:08:35.218Z,34.5
2018-09-19T17:13:38.197Z,35
2018-09-19T17:18:40.174Z,35.7
2018-09-19T17:23:42.639Z,36
2018-09-19T17:28:45.125Z,36.8
2018-09-19T17:33:47.435Z,37
2018-09-19T17:38:49.856Z,37.2
2018-09-19T17:43:53.442Z,37.9
2018-09-19T17:48:55.068Z,38.6
2018-09-19T17:53:57.204Z,39.1
2018-09-19T17:58:59.772Z,39.5
2018-09-19T18:04:02.166Z,39.9
2018-09-19T18:09:04.617Z,40
2018-09-19T18:14:06.957Z,40.5
2018-09-19T18:19:09.408Z,40.8
2018-09-19T18:24:11.888Z,41
2018-09-19T18:29:14.380Z,41.3
2018-09-19T18:34:16.889Z,41.4
2018-09-19T18:39:19.205Z,41.9
2018-09-19T18:44:22.474Z,42
2018-09-19T18:49:24.069Z,42.2
2018-09-19T18:54:26.502Z,42.2
2018-09-19T18:59:28.952Z,42.5
2018-09-19T19:04:31.403Z,42.6
2018-09-19T19:09:34.143Z,42.8
2018-09-19T19:14:36.292Z,43.2
2018-09-19T19:19:38.815Z,43.4
2018-09-19T19:24:41.165Z,44
2018-09-19T19:29:43.602Z,44.3
2018-09-19T19:34:46.040Z,44.5
2018-09-19T19:39:48.476Z,44.6
2018-09-19T19:44:51.036Z,45.2
2018-09-19T19:49:53.599Z,45.3
2018-09-19T19:54:55.816Z,45.5
2018-09-19T19:59:58.275Z,45.7
2018-09-19T20:05:00.754Z,45.9
2018-09-19T20:10:03.255Z,46
2018-09-19T20:15:05.560Z,46
2018-09-19T20:20:08.465Z,46.1
2018-09-19T20:25:10.495Z,46.2
2018-09-19T20:30:12.923Z,46.2
2018-09-19T20:35:15.665Z,46.5
2018-09-19T20:40:17.799Z,46.8
2018-09-19T20:45:20.288Z,47.1
2018-09-19T20:50:22.664Z,47.3
2018-09-19T20:55:25.268Z,48.2
2018-09-19T21:00:27.536Z,48.7
2018-09-19T21:05:30.874Z,48.9
2018-09-19T21:10:32.444Z,49.3
2018-09-19T21:15:34.958Z,49.3
2018-09-19T21:20:37.352Z,49.3
2018-09-19T21:25:39.762Z,49.4
2018-09-19T21:30:42.201Z,49.3
2018-09-19T21:35:44.667Z,49.1
2018-09-19T21:40:47.179Z,49
2018-09-19T21:45:49.507Z,49
2018-09-19T21:50:51.953Z,49.2
2018-09-19T21:55:54.391Z,49.3
2018-09-19T22:00:56.818Z,49.7
2018-09-19T22:05:59.367Z,49.8
2018-09-19T22:11:01.781Z,49.8
2018-09-19T22:16:04.225Z,49.8
2018-09-19T22:21:06.600Z,50
2018-09-19T22:26:09.029Z,50.2
2018-09-19T22:31:11.521Z,50.4
2018-09-19T22:36:14.057Z,50.6
2018-09-19T22:41:16.354Z,50.7
2018-09-19T22:46:18.810Z,50.9
2018-09-19T22:51:21.244Z,51
2018-09-19T22:56:23.703Z,51.1
2018-09-19T23:01:26.121Z,51.4
2018-09-19T23:06:28.576Z,51.6
2018-09-19T23:11:30.996Z,51.8
2018-09-19T23:16:33.468Z,51.9
2018-09-19T23:21:35.963Z,52.1
2018-09-19T23:26:38.325Z,52.2
2018-09-19T23:31:40.781Z,52.2
2018-09-19T23:36:43.207Z,52.2
2018-09-19T23:41:45.683Z,52.4
2018-09-19T23:46:48.100Z,53
2018-09-19T23:51:50.541Z,53.3
2018-09-19T23:56:53.236Z,53.7
